Time;durP1;ratioP1;P1;durP2;ratioP2;P2;SDS_P1;SDS_P2;PMS_P1;PMS_P2;Temp;Humidity;BMP_temperature;BMP_pressure;BME280_temperature;BME280_humidity;BME280_pressure;Samples;Min_cycle;Max_cycle;Signal;HPM_P1;HPM_P2
2021/06/16 00:01:16;;;;;;;17.85;13.22;;;;;;;14.87;89.91;94516.61;1660585;85;20996;-57
2021/06/16 00:03:43;;;;;;;17.40;14.50;;;;;;;14.85;90.11;94511.39;1666264;84;21427;-57
2021/06/16 00:06:10;;;;;;;19.37;13.90;;;;;;;14.81;90.11;94511.58;1664200;84;21211;-55
2021/06/16 00:08:38;;;;;;;15.25;13.08;;;;;;;14.79;90.56;94510.55;1670709;85;21039;-56
2021/06/16 00:11:07;;;;;;;16.02;12.95;;;;;;;14.81;90.32;94506.04;1674518;84;21108;-55
2021/06/16 00:13:33;;;;;;;21.12;13.58;;;;;;;14.82;90.25;94515.88;1610447;85;21459;-55
2021/06/16 00:16:00;;;;;;;19.50;15.08;;;;;;;14.86;90.17;94515.08;1646939;84;21109;-55
2021/06/16 00:18:27;;;;;;;17.55;13.65;;;;;;;14.86;90.21;94515.08;1627754;86;21057;-55
2021/06/16 00:20:54;;;;;;;14.60;12.15;;;;;;;14.88;90.16;94518.74;1666384;85;21508;-55
2021/06/16 00:23:21;;;;;;;14.03;12.28;;;;;;;14.94;90.28;94518.19;1673358;84;21224;-55
2021/06/16 00:25:48;;;;;;;17.27;13.78;;;;;;;14.98;90.01;94519.53;1657847;84;21196;-56
2021/06/16 00:28:15;;;;;;;17.10;13.70;;;;;;;14.98;89.92;94518.14;1661257;84;21621;-56
2021/06/16 00:30:42;;;;;;;16.37;13.25;;;;;;;14.99;90.00;94514.13;1652697;84;21010;-56
2021/06/16 00:33:09;;;;;;;17.80;13.15;;;;;;;15.02;90.17;94517.32;1666083;84;20996;-56
2021/06/16 00:35:36;;;;;;;18.67;12.40;;;;;;;15.07;90.02;94521.42;1653761;84;21290;-55
2021/06/16 00:38:04;;;;;;;18.42;14.25;;;;;;;15.11;89.90;94524.75;1663962;84;21180;-56
2021/06/16 00:40:31;;;;;;;18.15;14.47;;;;;;;15.14;89.63;94521.80;1636341;85;21196;-57
2021/06/16 00:42:58;;;;;;;23.62;14.78;;;;;;;15.12;89.33;94517.97;1660025;84;21075;-56
2021/06/16 00:45:25;;;;;;;19.98;14.50;;;;;;;15.08;89.24;94529.88;1658992;84;21628;-57
2021/06/16 00:47:57;;;;;;;19.00;13.40;;;;;;;15.04;89.22;94530.70;1664887;85;21120;-56
2021/06/16 00:50:32;;;;;;;18.15;13.05;;;;;;;15.02;89.26;94531.17;1663667;85;21557;-55
2021/06/16 00:52:59;;;;;;;16.10;14.25;;;;;;;15.01;89.31;94535.19;1658184;84;20993;-55
2021/06/16 00:55:27;;;;;;;17.73;14.53;;;;;;;15.02;89.41;94534.58;1656091;85;21053;-56
2021/06/16 00:57:54;;;;;;;20.70;15.45;;;;;;;14.98;89.40;94522.30;1671619;85;20999;-56
2021/06/16 01:00:26;;;;;;;13.72;12.10;;;;;;;14.97;89.37;94529.09;1640398;85;21221;-56
2021/06/16 01:03:07;;;;;;;17.65;13.48;;;;;;;14.95;89.47;94523.27;1657563;84;21223;-56
2021/06/16 01:05:50;;;;;;;16.55;12.50;;;;;;;14.90;89.45;94527.33;1657844;84;20994;-55
2021/06/16 01:08:20;;;;;;;16.82;14.25;;;;;;;14.91;89.59;94528.86;1653891;84;21440;-55
2021/06/16 01:10:47;;;;;;;17.32;15.30;;;;;;;14.90;89.75;94534.25;1664942;84;20987;-55
2021/06/16 01:13:28;;;;;;;21.10;16.50;;;;;;;14.92;89.79;94528.99;1626519;85;21146;-55
2021/06/16 01:16:18;;;;;;;16.65;13.38;;;;;;;14.92;89.75;94525.62;1652226;84;21141;-55
2021/06/16 01:18:53;;;;;;;15.65;12.23;;;;;;;14.92;89.55;94525.62;1643093;85;21127;-56
2021/06/16 01:21:20;;;;;;;22.05;14.07;;;;;;;14.89;89.48;94523.81;1670711;84;20998;-55
2021/06/16 01:24:06;;;;;;;18.48;16.17;;;;;;;14.87;89.50;94529.07;1666773;84;21082;-55
2021/06/16 01:26:38;;;;;;;19.50;15.78;;;;;;;14.84;89.53;94532.77;1668843;85;21165;-56
2021/06/16 01:29:22;;;;;;;21.37;15.35;;;;;;;14.80;89.33;94532.84;1662941;85;21052;-54
2021/06/16 01:31:50;;;;;;;16.50;13.50;;;;;;;14.76;89.54;94526.11;1648693;85;21090;-54
2021/06/16 01:34:20;;;;;;;17.37;13.22;;;;;;;14.76;89.77;94523.95;1666818;85;21007;-54
2021/06/16 01:36:47;;;;;;;15.80;14.20;;;;;;;14.73;89.77;94524.30;1650158;85;21125;-55
2021/06/16 01:39:18;;;;;;;17.02;15.23;;;;;;;14.71;89.80;94528.17;1667092;84;21189;-55
2021/06/16 01:41:45;;;;;;;21.40;14.20;;;;;;;14.69;90.22;94527.89;1647551;84;21188;-56
2021/06/16 01:44:12;;;;;;;17.45;14.28;;;;;;;14.73;90.54;94532.61;1657057;84;20978;-55
2021/06/16 01:46:42;;;;;;;15.38;13.72;;;;;;;14.80;90.50;94532.84;1651760;84;20979;-56
2021/06/16 01:49:11;;;;;;;17.90;14.83;;;;;;;14.87;90.29;94534.61;1627570;84;21580;-56
2021/06/16 01:51:40;;;;;;;17.52;15.08;;;;;;;14.93;90.20;94535.45;1657445;84;21837;-56
2021/06/16 01:54:09;;;;;;;21.17;15.25;;;;;;;14.95;90.07;94537.73;1658556;85;20983;-56
2021/06/16 01:56:37;;;;;;;20.92;13.60;;;;;;;14.98;89.86;94541.69;1646378;84;21033;-56
2021/06/16 01:59:04;;;;;;;15.38;12.50;;;;;;;14.98;89.72;94535.41;1641540;85;21580;-56
2021/06/16 02:01:30;;;;;;;16.02;11.85;;;;;;;14.96;89.62;94534.48;1650816;85;20941;-56
2021/06/16 02:03:57;;;;;;;20.15;14.68;;;;;;;14.92;89.65;94538.69;1663861;85;21128;-57
2021/06/16 02:06:28;;;;;;;15.00;13.05;;;;;;;14.87;89.62;94536.00;1644627;85;21572;-55
2021/06/16 02:08:55;;;;;;;15.38;12.43;;;;;;;14.84;89.78;94527.23;1652901;85;21727;-56
2021/06/16 02:11:23;;;;;;;12.78;11.50;;;;;;;14.81;89.73;94542.05;1643111;85;21036;-55
2021/06/16 02:13:56;;;;;;;13.83;11.90;;;;;;;14.78;89.81;94543.01;1665915;84;21536;-55
2021/06/16 02:16:36;;;;;;;18.85;13.78;;;;;;;14.73;89.93;94543.69;1661288;84;21129;-55
2021/06/16 02:19:10;;;;;;;18.67;14.40;;;;;;;14.73;90.16;94538.15;1686434;84;20939;-56
2021/06/16 02:21:38;;;;;;;16.00;14.30;;;;;;;14.75;90.29;94545.96;1662535;84;21497;-56
2021/06/16 02:24:07;;;;;;;17.95;13.22;;;;;;;14.75;90.33;94555.66;1649010;84;21098;-55
2021/06/16 02:26:34;;;;;;;14.30;12.80;;;;;;;14.78;90.26;94550.57;1657127;85;21048;-56
2021/06/16 02:29:01;;;;;;;15.28;13.60;;;;;;;14.83;90.22;94552.66;1663650;85;21787;-57
2021/06/16 02:31:27;;;;;;;20.02;12.60;;;;;;;14.84;89.86;94554.94;1656802;84;21106;-56
2021/06/16 02:33:54;;;;;;;11.03;9.83;;;;;;;14.82;89.81;94549.75;1657597;85;21569;-56
2021/06/16 02:36:22;;;;;;;11.28;10.18;;;;;;;14.82;89.78;94548.36;1653081;85;21090;-56
2021/06/16 02:38:54;;;;;;;11.95;9.85;;;;;;;14.78;89.62;94549.94;1650348;85;20990;-56
2021/06/16 02:41:22;;;;;;;12.68;10.25;;;;;;;14.78;89.76;94557.49;1622579;85;21161;-56
2021/06/16 02:43:50;;;;;;;13.58;11.05;;;;;;;14.75;89.47;94556.44;1656588;84;21177;-56
2021/06/16 02:46:17;;;;;;;16.20;9.45;;;;;;;14.74;89.62;94567.37;1650639;84;21018;-56
2021/06/16 02:48:48;;;;;;;12.80;9.30;;;;;;;14.68;89.43;94569.29;1653383;84;21512;-56
2021/06/16 02:51:16;;;;;;;13.50;8.40;;;;;;;14.65;89.59;94568.83;1663384;84;21050;-56
2021/06/16 02:53:43;;;;;;;10.10;9.20;;;;;;;14.66;89.78;94567.59;1659064;84;21606;-55
2021/06/16 02:56:10;;;;;;;11.68;10.25;;;;;;;14.68;90.15;94573.44;1650237;84;20991;-56
2021/06/16 02:58:40;;;;;;;15.18;10.90;;;;;;;14.75;90.05;94577.20;1655660;84;21609;-56
2021/06/16 03:01:11;;;;;;;13.62;10.20;;;;;;;14.72;89.69;94579.55;1656376;85;21000;-55
2021/06/16 03:03:37;;;;;;;17.57;11.10;;;;;;;14.69;89.63;94576.35;1658675;85;21492;-55
2021/06/16 03:06:05;;;;;;;11.70;10.50;;;;;;;14.67;89.95;94580.20;1631539;86;20987;-56
2021/06/16 03:08:32;;;;;;;13.72;10.13;;;;;;;14.73;90.18;94573.38;1648847;85;21038;-57
2021/06/16 03:10:59;;;;;;;14.68;9.15;;;;;;;14.77;90.08;94580.25;1646425;84;21132;-55
2021/06/16 03:13:28;;;;;;;12.73;8.88;;;;;;;14.82;89.93;94576.81;1666752;85;21018;-54
2021/06/16 03:15:57;;;;;;;11.40;8.80;;;;;;;14.89;89.72;94580.59;1668152;84;21933;-55
2021/06/16 03:18:23;;;;;;;11.22;10.08;;;;;;;14.91;89.44;94575.95;1630149;85;21128;-55
2021/06/16 03:20:53;;;;;;;12.88;11.50;;;;;;;14.92;89.27;94573.31;1630131;85;21062;-55
2021/06/16 03:23:20;;;;;;;14.25;10.93;;;;;;;14.90;89.33;94574.42;1643814;85;21397;-56
2021/06/16 03:25:48;;;;;;;17.20;10.58;;;;;;;14.89;89.37;94569.52;1670524;85;21039;-55
2021/06/16 03:28:15;;;;;;;13.40;10.85;;;;;;;14.93;89.30;94572.07;1655172;85;20954;-56
2021/06/16 03:30:42;;;;;;;14.15;11.50;;;;;;;14.98;89.25;94576.33;1612737;85;21199;-55
2021/06/16 03:33:09;;;;;;;12.65;11.35;;;;;;;15.02;89.06;94570.59;1661492;85;20987;-55
2021/06/16 03:35:36;;;;;;;14.43;11.83;;;;;;;15.03;88.88;94574.26;1641746;85;21527;-56
2021/06/16 03:38:03;;;;;;;13.30;9.75;;;;;;;15.03;88.85;94570.10;1647090;85;21003;-56
2021/06/16 03:40:30;;;;;;;14.25;9.30;;;;;;;15.07;89.00;94567.92;1633367;85;21584;-56
2021/06/16 03:42:59;;;;;;;14.23;10.80;;;;;;;15.15;88.87;94569.68;1611824;87;21192;-55
2021/06/16 03:45:26;;;;;;;14.25;12.28;;;;;;;15.22;88.68;94562.34;1611408;84;21090;-56
2021/06/16 03:47:57;;;;;;;13.03;11.73;;;;;;;15.25;88.49;94564.92;1664143;84;21174;-56
2021/06/16 03:50:24;;;;;;;11.30;10.18;;;;;;;15.28;88.35;94559.80;1645930;85;21019;-56
2021/06/16 03:52:50;;;;;;;11.85;10.18;;;;;;;15.37;88.13;94562.47;1653255;84;21022;-56
2021/06/16 03:55:17;;;;;;;12.25;10.50;;;;;;;15.48;87.81;94564.03;1666708;84;21144;-56
2021/06/16 03:57:44;;;;;;;14.55;10.15;;;;;;;15.55;87.50;94562.23;1663592;84;21077;-55
2021/06/16 04:00:14;;;;;;;12.18;9.53;;;;;;;15.61;87.14;94563.09;1648092;85;21138;-57
2021/06/16 04:02:41;;;;;;;10.48;8.65;;;;;;;15.67;86.74;94565.30;1653518;85;21049;-57
2021/06/16 04:05:09;;;;;;;12.65;9.03;;;;;;;15.71;86.60;94563.08;1653245;84;21054;-57
2021/06/16 04:07:36;;;;;;;11.65;9.30;;;;;;;15.77;86.32;94577.78;1669821;85;21797;-56
2021/06/16 04:10:05;;;;;;;11.30;10.00;;;;;;;15.87;86.14;94578.44;1652659;84;21103;-56
2021/06/16 04:12:32;;;;;;;14.55;9.18;;;;;;;15.92;85.53;94574.32;1666229;85;21335;-57
2021/06/16 04:14:59;;;;;;;10.95;8.93;;;;;;;15.92;85.24;94575.70;1646558;85;21738;-55
2021/06/16 04:17:25;;;;;;;14.20;8.50;;;;;;;15.95;84.95;94571.95;1663516;84;21035;-56
2021/06/16 04:19:53;;;;;;;9.58;8.10;;;;;;;16.01;84.75;94572.03;1654875;85;21067;-56
2021/06/16 04:22:20;;;;;;;10.68;8.55;;;;;;;16.03;84.49;94577.25;1672280;85;20945;-56
2021/06/16 04:24:47;;;;;;;17.20;9.63;;;;;;;16.07;84.53;94579.18;1662894;84;21483;-58
2021/06/16 04:27:14;;;;;;;10.13;9.05;;;;;;;16.14;84.43;94583.55;1657390;84;21010;-56
2021/06/16 04:29:41;;;;;;;15.32;9.03;;;;;;;16.24;84.34;94584.95;1627284;85;20995;-56
2021/06/16 04:32:12;;;;;;;9.50;7.25;;;;;;;16.36;84.19;94586.00;1652511;85;21143;-55
2021/06/16 04:34:39;;;;;;;10.50;8.70;;;;;;;16.49;84.09;94588.54;1656051;84;21061;-57
2021/06/16 04:37:08;;;;;;;12.35;10.13;;;;;;;16.62;83.80;94578.44;1632815;86;21541;-56
2021/06/16 04:39:36;;;;;;;12.30;10.15;;;;;;;16.69;83.67;94581.55;1627271;86;21090;-54
2021/06/16 04:42:04;;;;;;;15.30;9.90;;;;;;;16.75;83.53;94579.58;1668966;85;21106;-54
2021/06/16 04:44:31;;;;;;;11.35;8.80;;;;;;;16.85;83.43;94575.39;1654756;84;21094;-55
2021/06/16 04:46:57;;;;;;;18.52;8.50;;;;;;;16.91;83.20;94582.40;1645721;84;21036;-58
2021/06/16 04:49:25;;;;;;;14.53;8.98;;;;;;;16.96;82.61;94586.62;1636828;85;20997;-65
2021/06/16 04:51:53;;;;;;;10.25;8.93;;;;;;;17.07;82.61;94588.73;1635468;85;20963;-66
2021/06/16 04:54:20;;;;;;;10.25;8.33;;;;;;;17.15;82.30;94589.80;1656630;85;21099;-55
2021/06/16 04:56:47;;;;;;;12.35;7.70;;;;;;;17.23;82.23;94585.30;1624667;85;21161;-55
2021/06/16 04:59:14;;;;;;;8.35;6.90;;;;;;;17.31;82.00;94582.22;1649412;84;21054;-56
2021/06/16 05:01:41;;;;;;;11.12;7.62;;;;;;;17.37;81.68;94592.78;1673423;84;21007;-56
2021/06/16 05:04:07;;;;;;;14.35;7.58;;;;;;;17.39;81.26;94585.48;1657571;84;21031;-57
2021/06/16 05:06:34;;;;;;;7.35;6.65;;;;;;;17.42;80.87;94590.70;1649044;85;21101;-55
2021/06/16 05:09:01;;;;;;;11.30;6.78;;;;;;;17.46;80.36;94592.61;1667504;84;21128;-56
2021/06/16 05:11:28;;;;;;;9.25;6.53;;;;;;;17.54;79.71;94603.41;1659257;85;21103;-56
2021/06/16 05:13:56;;;;;;;11.70;7.50;;;;;;;17.58;79.68;94602.54;1653668;84;21128;-56
2021/06/16 05:16:22;;;;;;;9.48;7.25;;;;;;;17.62;79.70;94604.48;1665512;84;21425;-56
2021/06/16 05:18:52;;;;;;;11.40;8.00;;;;;;;17.61;79.68;94607.88;1627064;85;21653;-55
2021/06/16 05:21:19;;;;;;;19.82;11.73;;;;;;;17.61;79.70;94603.71;1647424;84;21823;-54
2021/06/16 05:23:46;;;;;;;12.18;9.05;;;;;;;17.61;79.64;94598.15;1664439;84;21156;-55
2021/06/16 05:26:12;;;;;;;9.88;7.30;;;;;;;17.67;79.93;94600.33;1612360;85;21042;-55
2021/06/16 05:28:40;;;;;;;7.83;7.08;;;;;;;17.77;79.35;94593.32;1654290;84;21269;-57
2021/06/16 05:31:09;;;;;;;11.43;7.33;;;;;;;17.89;78.09;94596.92;1635071;84;21156;-56
2021/06/16 05:33:37;;;;;;;11.73;8.25;;;;;;;17.99;76.90;94596.87;1655674;83;21919;-56
2021/06/16 05:36:07;;;;;;;10.95;5.70;;;;;;;18.08;76.30;94607.78;1642903;83;21199;-55
2021/06/16 05:38:36;;;;;;;20.25;7.55;;;;;;;18.17;74.45;94603.41;1653592;83;21077;-55
2021/06/16 05:41:03;;;;;;;14.68;7.15;;;;;;;18.19;74.15;94612.77;1627786;85;21003;-57
2021/06/16 05:43:32;;;;;;;11.50;7.45;;;;;;;18.24;74.30;94611.41;1614924;87;20994;-57
2021/06/16 05:45:59;;;;;;;12.20;6.92;;;;;;;18.29;74.07;94607.17;1623589;87;21153;-55
2021/06/16 05:48:26;;;;;;;12.78;6.28;;;;;;;18.34;73.60;94610.59;1675958;84;21108;-58
2021/06/16 05:50:52;;;;;;;5.97;3.33;;;;;;;18.40;71.44;94604.41;1654036;84;21029;-57
2021/06/16 05:53:19;;;;;;;5.67;3.33;;;;;;;18.39;68.32;94611.24;1670349;84;21270;-58
2021/06/16 05:55:46;;;;;;;5.58;3.00;;;;;;;18.45;66.28;94603.69;1662427;83;21055;-56
2021/06/16 05:58:13;;;;;;;5.85;2.98;;;;;;;18.52;65.39;94609.55;1609293;86;21834;-58
2021/06/16 06:00:40;;;;;;;8.35;5.30;;;;;;;18.60;64.10;94605.00;1590132;88;21111;-59
2021/06/16 06:03:07;;;;;;;4.60;3.20;;;;;;;18.67;62.96;94610.08;1603779;87;21156;-58
2021/06/16 06:05:33;;;;;;;3.70;3.10;;;;;;;18.76;63.50;94611.25;1646355;83;21443;-63
2021/06/16 06:08:01;;;;;;;7.28;3.75;;;;;;;18.85;63.29;94613.05;1646986;84;21069;-58
2021/06/16 06:10:28;;;;;;;5.42;3.90;;;;;;;18.92;63.13;94611.15;1653989;84;21745;-58
2021/06/16 06:12:56;;;;;;;3.98;3.22;;;;;;;19.03;63.60;94612.58;1660980;83;21169;-57
2021/06/16 06:15:23;;;;;;;7.33;4.92;;;;;;;19.10;61.40;94615.63;1651395;84;21000;-60
2021/06/16 06:17:50;;;;;;;11.22;4.10;;;;;;;19.18;61.38;94611.09;1657200;84;21000;-61
2021/06/16 06:20:18;;;;;;;5.12;2.90;;;;;;;19.21;59.65;94619.09;1659000;83;21068;-58
2021/06/16 06:22:44;;;;;;;5.40;3.55;;;;;;;19.21;58.69;94621.23;1622348;85;21165;-60
2021/06/16 06:25:12;;;;;;;9.43;6.72;;;;;;;19.22;58.36;94619.22;1641443;85;38560;-59
2021/06/16 06:27:39;;;;;;;6.47;3.75;;;;;;;19.25;59.52;94621.00;1620471;85;21047;-61
2021/06/16 06:30:08;;;;;;;3.62;2.75;;;;;;;19.33;60.02;94625.56;1612764;85;21125;-58
2021/06/16 06:32:34;;;;;;;2.58;2.35;;;;;;;19.42;58.67;94623.94;1654391;83;21045;-60
2021/06/16 06:35:01;;;;;;;8.98;4.22;;;;;;;19.52;57.15;94621.00;1651416;84;21077;-60
2021/06/16 06:37:28;;;;;;;2.92;2.60;;;;;;;19.58;57.19;94618.97;1657697;85;21057;-59
2021/06/16 06:39:55;;;;;;;5.37;3.00;;;;;;;19.66;57.09;94622.78;1657166;85;21119;-57
2021/06/16 06:42:22;;;;;;;8.23;4.33;;;;;;;19.74;55.29;94625.82;1661279;84;21074;-60
2021/06/16 06:44:48;;;;;;;9.78;3.72;;;;;;;19.79;54.91;94618.84;1604424;86;21128;-59
2021/06/16 06:47:15;;;;;;;5.25;3.02;;;;;;;19.83;55.00;94619.34;1582594;88;21160;-59
2021/06/16 06:49:42;;;;;;;4.83;2.70;;;;;;;19.86;54.50;94622.50;1596272;88;21109;-56
2021/06/16 06:52:09;;;;;;;6.05;2.90;;;;;;;19.82;54.81;94625.42;1654257;84;21071;-57
2021/06/16 06:54:36;;;;;;;3.35;2.25;;;;;;;19.78;53.93;94624.27;1655755;84;21005;-58
2021/06/16 06:57:04;;;;;;;9.35;4.08;;;;;;;19.78;53.40;94618.69;1609104;85;21040;-58
2021/06/16 06:59:30;;;;;;;6.03;2.77;;;;;;;19.82;54.03;94627.59;1667563;83;21265;-56
2021/06/16 07:01:59;;;;;;;2.83;2.42;;;;;;;19.83;52.30;94627.72;1656044;84;21169;-55
2021/06/16 07:04:26;;;;;;;4.95;2.52;;;;;;;19.85;53.54;94623.77;1648316;83;21105;-58
2021/06/16 07:06:55;;;;;;;4.15;3.40;;;;;;;19.85;54.58;94630.76;1656828;83;21221;-62
2021/06/16 07:09:23;;;;;;;4.33;2.58;;;;;;;19.86;54.50;94630.88;1669901;83;21070;-61
2021/06/16 07:11:51;;;;;;;3.33;2.27;;;;;;;19.90;53.38;94617.41;1657998;83;21098;-56
2021/06/16 07:14:19;;;;;;;6.20;3.00;;;;;;;19.92;51.81;94621.11;1648010;83;21521;-56
2021/06/16 07:16:46;;;;;;;2.72;2.45;;;;;;;19.93;52.43;94616.39;1650224;83;21119;-57
2021/06/16 07:19:13;;;;;;;4.35;3.45;;;;;;;19.97;53.95;94619.70;1667572;83;21510;-65
2021/06/16 07:21:41;;;;;;;5.83;4.78;;;;;;;20.08;53.10;94619.69;1657922;84;21194;-59
2021/06/16 07:24:10;;;;;;;3.45;2.80;;;;;;;20.23;54.65;94620.16;1592670;86;21629;-60
2021/06/16 07:26:38;;;;;;;3.50;2.08;;;;;;;20.34;53.67;94620.14;1650217;83;21179;-59
2021/06/16 07:29:05;;;;;;;4.25;2.80;;;;;;;20.39;51.97;94624.30;1647690;84;21904;-58
2021/06/16 07:31:32;;;;;;;4.20;2.40;;;;;;;20.37;51.81;94623.30;1617329;86;21041;-62
2021/06/16 07:33:58;;;;;;;18.20;3.77;;;;;;;20.34;52.65;94628.53;1598166;87;21124;-58
2021/06/16 07:36:27;;;;;;;5.62;3.10;;;;;;;20.33;53.00;94631.17;1647724;85;21193;-61
2021/06/16 07:38:53;;;;;;;4.05;2.47;;;;;;;20.32;52.47;94633.22;1660922;84;20945;-60
2021/06/16 07:41:20;;;;;;;2.47;2.00;;;;;;;20.34;51.58;94636.91;1663126;84;21514;-59
2021/06/16 07:43:49;;;;;;;5.92;2.80;;;;;;;20.37;49.55;94636.63;1654398;84;20967;-58
2021/06/16 07:46:17;;;;;;;13.45;2.95;;;;;;;20.44;50.42;94636.73;1669165;83;21049;-60
2021/06/16 07:48:44;;;;;;;4.92;2.40;;;;;;;20.60;50.32;94630.32;1650535;84;21114;-61
2021/06/16 07:51:11;;;;;;;2.87;2.33;;;;;;;20.77;49.71;94633.81;1658378;83;21372;-60
2021/06/16 07:53:40;;;;;;;3.65;2.70;;;;;;;20.90;50.16;94628.44;1661968;83;21412;-58
2021/06/16 07:56:06;;;;;;;3.15;2.45;;;;;;;21.04;49.87;94629.49;1665908;84;21106;-58
2021/06/16 07:58:33;;;;;;;7.28;2.85;;;;;;;21.16;49.15;94644.17;1639670;84;20940;-59
2021/06/16 08:01:02;;;;;;;10.38;2.90;;;;;;;21.19;48.16;94638.94;1632017;83;21140;-65
2021/06/16 08:03:29;;;;;;;5.22;2.40;;;;;;;21.18;47.98;94643.02;1641228;85;21108;-59
2021/06/16 08:05:56;;;;;;;4.60;2.50;;;;;;;21.20;48.41;94649.63;1658653;83;21012;-58
2021/06/16 08:08:25;;;;;;;3.77;2.40;;;;;;;21.17;48.75;94661.86;1658014;83;21147;-59
2021/06/16 08:10:52;;;;;;;2.47;2.20;;;;;;;21.09;48.07;94650.33;1611760;85;21632;-57
2021/06/16 08:13:21;;;;;;;3.92;2.22;;;;;;;20.98;48.67;94655.34;1662372;83;22029;-59
2021/06/16 08:15:48;;;;;;;4.05;2.50;;;;;;;21.04;48.42;94651.10;1659572;84;21073;-55
2021/06/16 08:18:15;;;;;;;3.77;2.42;;;;;;;21.21;48.41;94654.56;1661987;83;21108;-64
2021/06/16 08:20:42;;;;;;;4.00;2.10;;;;;;;21.40;48.96;94656.86;1625139;85;21030;-61
2021/06/16 08:23:09;;;;;;;5.28;2.20;;;;;;;21.59;48.88;94651.52;1660343;84;21427;-58
2021/06/16 08:25:36;;;;;;;9.03;2.42;;;;;;;21.77;48.51;94649.48;1657786;83;21076;-63
2021/06/16 08:28:03;;;;;;;4.42;2.00;;;;;;;21.88;48.16;94650.03;1673319;82;21124;-58
2021/06/16 08:30:30;;;;;;;4.03;2.27;;;;;;;21.98;46.46;94649.83;1644930;85;21039;-59
2021/06/16 08:32:59;;;;;;;7.28;4.28;;;;;;;22.04;46.35;94658.28;1603562;86;21007;-61
2021/06/16 08:35:26;;;;;;;3.27;2.40;;;;;;;22.22;48.46;94659.77;1614124;86;21146;-64
2021/06/16 08:37:54;;;;;;;5.65;2.60;;;;;;;22.43;47.26;94660.84;1592700;87;21181;-61
2021/06/16 08:40:21;;;;;;;5.40;2.40;;;;;;;22.56;46.16;94660.97;1588496;87;21029;-56
2021/06/16 08:42:49;;;;;;;4.78;2.40;;;;;;;22.66;46.98;94664.92;1587829;87;21229;-58
2021/06/16 08:45:17;;;;;;;9.75;2.45;;;;;;;22.73;47.37;94672.76;1590923;87;21055;-60
2021/06/16 08:47:48;;;;;;;2.30;2.10;;;;;;;22.64;44.92;94681.52;1622559;85;21536;-58
2021/06/16 08:50:16;;;;;;;5.28;2.20;;;;;;;22.41;45.83;94680.25;1642141;85;21201;-62
2021/06/16 08:52:43;;;;;;;4.37;2.10;;;;;;;22.24;44.89;94677.45;1671373;84;21278;-57
2021/06/16 08:55:15;;;;;;;4.80;1.87;;;;;;;22.06;46.22;94680.30;1631941;84;21171;-58
2021/06/16 08:57:41;;;;;;;3.98;2.60;;;;;;;21.98;45.58;94694.00;1635837;84;21057;-61
2021/06/16 09:00:09;;;;;;;6.17;2.80;;;;;;;;;;1655597;83;21168;-56
2021/06/16 09:02:36;;;;;;;4.08;1.87;;;;;;;21.91;47.57;94697.38;1648362;85;21158;-60
2021/06/16 09:05:04;;;;;;;5.20;1.80;;;;;;;21.90;46.91;94693.69;1644214;84;21097;-58
2021/06/16 09:07:32;;;;;;;3.30;2.00;;;;;;;21.87;46.38;94691.94;1652998;84;21013;-64
2021/06/16 09:10:18;;;;;;;3.08;2.33;;;;;;;21.85;46.18;94692.45;1657762;83;21516;-58
2021/06/16 09:12:57;;;;;;;6.95;2.37;;;;;;;21.94;45.32;94698.36;1663668;84;21113;-62
2021/06/16 09:15:26;;;;;;;3.42;1.90;;;;;;;22.08;45.76;94691.74;1649888;84;21145;-61
2021/06/16 09:18:12;;;;;;;5.37;2.12;;;;;;;22.36;45.94;94689.45;1657617;83;21128;-56
2021/06/16 09:20:46;;;;;;;5.08;2.17;;;;;;;22.59;45.94;94689.36;1643110;84;21186;-63
2021/06/16 09:23:22;;;;;;;2.30;2.10;;;;;;;22.83;45.32;94685.12;1657873;85;21841;-63
2021/06/16 09:26:10;;;;;;;2.62;1.80;;;;;;;22.97;45.44;94689.55;1643937;83;21132;-62
2021/06/16 09:28:48;;;;;;;2.58;1.90;;;;;;;23.03;43.91;94687.42;1669750;84;21196;-58
2021/06/16 09:31:16;;;;;;;2.67;1.90;;;;;;;22.96;44.91;94690.84;1678571;83;21368;-57
2021/06/16 09:33:42;;;;;;;6.50;2.05;;;;;;;22.90;44.71;94699.98;1638026;84;21677;-57
2021/06/16 09:36:17;;;;;;;5.00;3.55;;;;;;;22.71;45.35;94706.19;1664454;83;21131;-61
2021/06/16 09:38:46;;;;;;;5.15;2.90;;;;;;;22.49;46.24;94710.61;1663609;83;21606;-56
2021/06/16 09:41:22;;;;;;;4.17;2.77;;;;;;;22.33;47.47;94719.17;1674374;84;21112;-57
2021/06/16 09:43:54;;;;;;;3.30;2.45;;;;;;;22.17;47.40;94713.84;1639843;84;21108;-58
2021/06/16 09:46:20;;;;;;;2.98;2.17;;;;;;;22.04;47.99;94717.89;1631139;85;21149;-56
2021/06/16 09:48:47;;;;;;;6.08;2.15;;;;;;;21.97;48.81;94718.33;1642169;85;21156;-59
2021/06/16 09:51:18;;;;;;;4.67;2.35;;;;;;;21.91;49.33;94718.39;1663770;83;21112;-60
2021/06/16 09:54:18;;;;;;;5.62;1.98;;;;;;;21.98;48.33;94721.27;1651964;84;21133;-58
2021/06/16 09:57:02;;;;;;;7.58;4.20;;;;;;;22.15;48.96;94717.78;1653364;84;21685;-58
2021/06/16 09:59:45;;;;;;;2.55;2.35;;;;;;;22.36;47.46;94715.31;1645827;85;21039;-58
2021/06/16 10:02:19;;;;;;;6.47;2.25;;;;;;;22.49;46.87;94714.81;1640970;84;21004;-57
2021/06/16 10:04:55;;;;;;;3.67;3.20;;;;;;;22.65;46.44;94714.55;1655319;83;21101;-60
2021/06/16 10:07:23;;;;;;;4.20;2.58;;;;;;;22.80;46.47;94714.90;1652083;85;21114;-57
2021/06/16 10:09:57;;;;;;;2.90;2.27;;;;;;;22.93;46.18;94716.38;1632828;86;21013;-57
2021/06/16 10:12:30;;;;;;;3.30;2.00;;;;;;;23.05;46.62;94713.57;1625515;85;21050;-58
2021/06/16 10:14:59;;;;;;;4.17;2.45;;;;;;;23.26;46.67;94711.16;1652903;83;21073;-57
2021/06/16 10:17:26;;;;;;;6.72;1.65;;;;;;;23.44;44.15;94699.81;1652327;83;21103;-59
2021/06/16 10:19:53;;;;;;;4.40;1.65;;;;;;;23.58;44.15;94706.36;1638548;84;21752;-58
2021/06/16 10:22:20;;;;;;;2.02;1.72;;;;;;;23.75;45.20;94704.06;1626693;86;21002;-60
2021/06/16 10:24:48;;;;;;;4.22;1.62;;;;;;;23.90;45.23;94707.19;1646769;84;21877;-60
2021/06/16 10:27:42;;;;;;;4.20;2.52;;;;;;;24.05;44.53;94710.28;1646115;85;20994;-60
2021/06/16 10:30:15;;;;;;;5.12;2.00;;;;;;;24.20;44.07;94709.14;1647070;84;21887;-59
2021/06/16 10:32:48;;;;;;;6.75;2.00;;;;;;;24.40;41.74;94704.31;1653518;83;21197;-60
2021/06/16 10:35:36;;;;;;;2.80;1.80;;;;;;;24.42;41.84;94697.50;1652754;84;21127;-57
2021/06/16 10:38:16;;;;;;;6.58;2.65;;;;;;;24.49;43.07;94689.19;1659840;83;22239;-58
2021/06/16 10:40:50;;;;;;;3.60;2.20;;;;;;;24.54;43.66;94698.19;1662532;83;21060;-61
2021/06/16 10:43:34;;;;;;;5.97;2.33;;;;;;;24.49;42.86;94708.10;1664081;83;21130;-59
2021/06/16 10:46:13;;;;;;;3.20;1.50;;;;;;;24.27;42.98;94713.48;1622936;86;26278;-57
2021/06/16 10:48:59;;;;;;;5.55;2.08;;;;;;;23.92;42.14;94704.60;1648973;84;21217;-57
2021/06/16 10:51:32;;;;;;;2.40;1.95;;;;;;;23.45;43.91;94714.73;1653535;84;21108;-58
2021/06/16 10:54:24;;;;;;;3.02;2.10;;;;;;;23.10;45.05;94714.14;1647302;83;21158;-57
2021/06/16 10:57:06;;;;;;;4.80;2.37;;;;;;;23.26;45.69;94708.36;1635526;85;21063;-60
2021/06/16 10:59:51;;;;;;;3.02;1.60;;;;;;;23.72;43.74;94699.52;1647211;84;21145;-58
2021/06/16 11:02:32;;;;;;;1.85;1.60;;;;;;;24.29;46.30;94693.25;1627384;85;21124;-60
2021/06/16 11:05:27;;;;;;;3.33;1.98;;;;;;;24.70;41.89;94702.76;1663868;85;21049;-58
2021/06/16 11:07:54;;;;;;;5.95;1.65;;;;;;;24.77;41.76;94702.10;1668733;83;21726;-58
2021/06/16 11:10:23;;;;;;;3.75;1.87;;;;;;;24.54;41.89;94702.41;1654617;84;21580;-59
2021/06/16 11:12:52;;;;;;;3.05;1.90;;;;;;;24.14;42.27;94707.05;1642680;85;21133;-58
2021/06/16 11:15:35;;;;;;;9.18;2.10;;;;;;;23.89;42.93;94706.30;1663031;83;21338;-58
2021/06/16 11:18:02;;;;;;;4.75;3.20;;;;;;;23.98;43.81;94710.88;1639417;85;21054;-60
2021/06/16 11:20:41;;;;;;;5.00;2.05;;;;;;;24.45;42.76;94702.81;1656657;83;21096;-58
2021/06/16 11:23:08;;;;;;;2.42;1.70;;;;;;;24.78;43.45;94707.09;1650086;83;21100;-57
2021/06/16 11:25:38;;;;;;;5.72;3.08;;;;;;;25.34;39.72;94694.84;1674180;84;21295;-58
2021/06/16 11:28:21;;;;;;;5.50;1.80;;;;;;;25.98;40.68;94691.84;1654329;83;21239;-59
2021/06/16 11:31:06;;;;;;;9.10;2.47;;;;;;;26.71;37.11;94700.03;1654491;83;21544;-61
2021/06/16 11:33:37;;;;;;;10.60;3.90;;;;;;;27.03;35.78;94689.89;1652040;83;21073;-61
2021/06/16 11:36:13;;;;;;;6.47;2.30;;;;;;;26.99;35.74;94695.14;1661377;84;21149;-60
2021/06/16 11:38:53;;;;;;;1.95;1.47;;;;;;;26.88;36.80;94696.85;1655864;83;21162;-59